createdAt,value
2023-09-08T00:00:02.067Z,19.66
2023-09-08T00:02:30.964Z,19.67
2023-09-08T00:04:57.695Z,19.64
2023-09-08T00:07:24.493Z,19.52
2023-09-08T00:09:51.214Z,19.48
2023-09-08T00:12:18.093Z,19.48
2023-09-08T00:14:45.192Z,19.45
2023-09-08T00:17:14.227Z,19.29
2023-09-08T00:19:42.420Z,19.33
2023-09-08T00:22:09.132Z,19.35
2023-09-08T00:24:36.544Z,19.34
2023-09-08T00:27:03.322Z,19.34
2023-09-08T00:29:29.947Z,19.40
2023-09-08T00:31:57.690Z,19.38
2023-09-08T00:34:24.401Z,19.30
2023-09-08T00:36:52.143Z,19.23
2023-09-08T00:39:18.731Z,19.19
2023-09-08T00:41:45.321Z,19.22
2023-09-08T00:44:12.475Z,19.19
2023-09-08T00:46:40.674Z,19.21
2023-09-08T00:49:09.588Z,19.14
2023-09-08T00:51:38.747Z,19.17
2023-09-08T00:54:06.424Z,19.15
2023-09-08T00:56:34.016Z,19.06
2023-09-08T00:59:00.781Z,19.15
2023-09-08T01:01:27.393Z,19.15
2023-09-08T01:03:54.064Z,19.12
2023-09-08T01:06:20.878Z,19.15
2023-09-08T01:08:48.008Z,19.08
2023-09-08T01:11:14.800Z,19.17
2023-09-08T01:13:41.453Z,19.18
2023-09-08T01:16:08.927Z,19.23
2023-09-08T01:18:35.974Z,19.28
2023-09-08T01:21:29.871Z,19.31
2023-09-08T01:24:11.638Z,19.29
2023-09-08T01:26:42.214Z,19.34
2023-09-08T01:29:10.460Z,19.37
2023-09-08T01:31:39.120Z,19.33
2023-09-08T01:34:07.939Z,19.29
2023-09-08T01:36:37.788Z,19.27
2023-09-08T01:39:04.582Z,19.30
2023-09-08T01:41:33.278Z,19.23
2023-09-08T01:44:01.128Z,19.19
2023-09-08T01:46:27.735Z,19.18
2023-09-08T01:48:54.465Z,19.16
2023-09-08T01:51:21.102Z,19.11
2023-09-08T01:53:47.815Z,19.10
2023-09-08T01:56:14.425Z,19.08
2023-09-08T01:58:41.031Z,18.98
2023-09-08T02:01:07.720Z,18.99
2023-09-08T02:03:35.549Z,18.92
2023-09-08T02:06:02.140Z,18.86
2023-09-08T02:08:28.842Z,18.86
2023-09-08T02:10:55.445Z,18.83
2023-09-08T02:13:23.152Z,18.80
2023-09-08T02:15:49.942Z,18.80
2023-09-08T02:18:16.647Z,18.74
2023-09-08T02:20:43.339Z,18.79
2023-09-08T02:23:10.110Z,18.66
2023-09-08T02:25:36.725Z,18.63
2023-09-08T02:28:03.699Z,18.53
2023-09-08T02:30:30.340Z,18.57
2023-09-08T02:32:57.657Z,18.56
2023-09-08T02:35:25.675Z,18.59
2023-09-08T02:37:54.296Z,18.63
2023-09-08T02:40:21.790Z,18.51
2023-09-08T02:42:49.789Z,18.56
2023-09-08T02:45:16.742Z,18.54
2023-09-08T02:47:43.576Z,18.64
2023-09-08T02:50:11.442Z,18.63
2023-09-08T02:52:38.144Z,18.62
2023-09-08T02:55:05.106Z,18.63
2023-09-08T02:57:31.699Z,18.61
2023-09-08T02:59:58.370Z,18.62
2023-09-08T03:02:27.937Z,18.69
2023-09-08T03:04:55.558Z,18.65
2023-09-08T03:07:22.302Z,18.64
2023-09-08T03:09:49.153Z,18.69
2023-09-08T03:12:16.042Z,18.67
2023-09-08T03:14:42.716Z,18.65
2023-09-08T03:17:09.737Z,18.63
2023-09-08T03:19:36.456Z,18.64
2023-09-08T03:22:03.355Z,18.58
2023-09-08T03:24:30.152Z,18.62
2023-09-08T03:27:00.086Z,18.56
2023-09-08T03:29:28.994Z,18.47
2023-09-08T03:31:55.746Z,18.52
2023-09-08T03:34:23.635Z,18.45
2023-09-08T03:36:50.553Z,18.45
2023-09-08T03:39:17.471Z,18.41
2023-09-08T03:41:44.094Z,18.35
2023-09-08T03:44:11.298Z,18.33
2023-09-08T03:46:38.105Z,18.32
2023-09-08T03:49:05.301Z,18.33
2023-09-08T03:51:31.969Z,18.36
2023-09-08T03:53:58.638Z,18.28
2023-09-08T03:56:25.299Z,18.19
2023-09-08T03:58:53.112Z,18.27
2023-09-08T04:01:19.965Z,18.22
2023-09-08T04:03:47.327Z,18.12
2023-09-08T04:06:13.962Z,18.17
2023-09-08T04:08:40.982Z,18.11
2023-09-08T04:11:07.530Z,18.10
2023-09-08T04:13:34.421Z,18.03
2023-09-08T04:16:01.312Z,17.97
2023-09-08T04:18:29.001Z,17.89
2023-09-08T04:20:55.922Z,17.90
2023-09-08T04:23:23.537Z,17.83
2023-09-08T04:25:50.491Z,17.80
2023-09-08T04:28:17.142Z,17.66
2023-09-08T04:30:43.873Z,17.68
2023-09-08T04:33:10.691Z,17.66
2023-09-08T04:35:37.753Z,17.64
2023-09-08T04:38:05.264Z,17.62
2023-09-08T04:40:31.974Z,17.72
2023-09-08T04:42:58.634Z,17.66
2023-09-08T04:45:25.348Z,17.58
2023-09-08T04:47:52.252Z,17.34
2023-09-08T04:50:20.332Z,17.46
2023-09-08T04:52:47.230Z,17.35
2023-09-08T04:55:14.288Z,17.41
2023-09-08T04:57:41.133Z,17.39
2023-09-08T05:00:09.203Z,17.48
2023-09-08T05:02:35.903Z,17.49
2023-09-08T05:05:04.136Z,17.52
2023-09-08T05:07:32.044Z,17.55
2023-09-08T05:09:59.025Z,17.60
2023-09-08T05:12:29.716Z,17.69
2023-09-08T05:15:01.078Z,17.73
2023-09-08T05:17:28.112Z,17.82
2023-09-08T05:19:54.789Z,17.86
2023-09-08T05:22:21.711Z,17.93
2023-09-08T05:24:48.618Z,17.99
2023-09-08T05:27:15.353Z,18.01
2023-09-08T05:29:41.944Z,18.00
2023-09-08T05:32:08.524Z,18.04
2023-09-08T05:34:35.413Z,18.01
2023-09-08T05:37:02.115Z,18.00
2023-09-08T05:39:28.801Z,17.99
2023-09-08T05:41:56.071Z,17.98
2023-09-08T05:44:22.846Z,18.07
2023-09-08T05:46:49.981Z,18.11
2023-09-08T05:49:16.668Z,18.12
2023-09-08T05:51:43.358Z,18.24
2023-09-08T05:54:10.198Z,18.34
2023-09-08T05:56:38.456Z,18.51
2023-09-08T05:59:05.476Z,18.56
2023-09-08T06:01:33.813Z,18.60
2023-09-08T06:04:02.205Z,18.75
2023-09-08T06:06:30.539Z,18.71
2023-09-08T06:08:58.960Z,18.77
2023-09-08T06:11:26.923Z,18.79
2023-09-08T06:13:57.033Z,18.94
2023-09-08T06:16:24.004Z,19.05
2023-09-08T06:18:50.649Z,19.11
2023-09-08T06:21:19.972Z,19.21
2023-09-08T06:23:46.690Z,19.18
2023-09-08T06:26:14.242Z,19.31
2023-09-08T06:28:42.924Z,19.29
2023-09-08T06:31:09.761Z,19.43
2023-09-08T06:33:38.105Z,19.51
2023-09-08T06:36:05.632Z,19.82
2023-09-08T06:38:32.942Z,19.89
2023-09-08T06:41:01.944Z,19.99
2023-09-08T06:43:29.017Z,20.09
2023-09-08T06:46:03.851Z,20.21
2023-09-08T06:48:30.690Z,20.32
2023-09-08T06:50:57.680Z,20.45
2023-09-08T06:53:25.676Z,20.46
2023-09-08T06:55:52.546Z,20.59
2023-09-08T06:58:19.775Z,20.69
2023-09-08T07:00:46.968Z,20.75
2023-09-08T07:03:14.293Z,20.83
2023-09-08T07:05:41.614Z,20.92
2023-09-08T07:08:08.739Z,21.08
2023-09-08T07:10:35.421Z,21.15
2023-09-08T07:13:02.548Z,21.23
2023-09-08T07:15:29.217Z,21.33
2023-09-08T07:17:58.404Z,21.41
2023-09-08T07:20:25.483Z,21.53
2023-09-08T07:22:52.917Z,21.61
2023-09-08T07:25:20.600Z,21.69
2023-09-08T07:27:47.692Z,21.77
2023-09-08T07:30:21.468Z,21.92
2023-09-08T07:32:48.182Z,21.78
2023-09-08T07:35:16.816Z,21.81
2023-09-08T07:37:45.499Z,21.85
2023-09-08T07:40:13.620Z,22.02
2023-09-08T07:42:40.819Z,22.11
2023-09-08T07:45:10.332Z,22.26
2023-09-08T07:47:39.509Z,22.39
2023-09-08T07:50:21.753Z,22.49
2023-09-08T07:52:53.494Z,22.45
2023-09-08T07:55:20.335Z,22.51
2023-09-08T07:57:47.374Z,22.59
2023-09-08T08:00:17.656Z,22.73
2023-09-08T08:02:50.704Z,22.79
2023-09-08T08:05:18.002Z,22.90
2023-09-08T08:07:45.460Z,23.09
2023-09-08T08:10:15.103Z,23.21
2023-09-08T08:12:43.248Z,23.36
2023-09-08T08:15:11.519Z,23.53
2023-09-08T08:17:38.842Z,23.61
2023-09-08T08:20:12.038Z,23.68
2023-09-08T08:22:38.829Z,23.64
2023-09-08T08:25:06.149Z,23.76
2023-09-08T08:27:32.846Z,23.88
2023-09-08T08:30:01.874Z,23.96
2023-09-08T08:32:30.183Z,24.04
2023-09-08T08:34:57.777Z,24.20
2023-09-08T08:37:24.634Z,24.15
2023-09-08T08:39:51.357Z,24.24
2023-09-08T08:42:18.558Z,24.35
2023-09-08T08:44:46.728Z,24.40
2023-09-08T08:47:17.041Z,24.48
2023-09-08T08:49:49.392Z,24.50
2023-09-08T08:52:16.352Z,24.66
2023-09-08T08:54:43.882Z,24.72
2023-09-08T08:57:12.235Z,24.82
2023-09-08T08:59:39.087Z,24.87
2023-09-08T09:02:06.588Z,25.00
2023-09-08T09:04:34.164Z,24.99
2023-09-08T09:07:00.972Z,25.10
2023-09-08T09:09:27.608Z,25.23
2023-09-08T09:11:54.540Z,25.30
2023-09-08T09:14:21.273Z,25.47
2023-09-08T09:16:48.908Z,25.51
2023-09-08T09:19:28.407Z,25.70
2023-09-08T09:21:56.430Z,25.75
2023-09-08T09:24:34.649Z,25.82
2023-09-08T09:27:02.306Z,26.05
2023-09-08T09:29:29.561Z,26.27
2023-09-08T09:32:05.229Z,26.27
2023-09-08T09:34:31.878Z,26.33
2023-09-08T09:36:58.551Z,26.57
2023-09-08T09:39:26.489Z,26.70
2023-09-08T09:41:57.596Z,26.76
2023-09-08T09:44:25.229Z,26.99
2023-09-08T09:46:55.062Z,27.14
2023-09-08T09:49:21.894Z,27.10
2023-09-08T09:51:50.432Z,27.24
2023-09-08T09:54:17.768Z,27.39
2023-09-08T09:56:46.597Z,27.43
2023-09-08T09:59:14.694Z,27.68
2023-09-08T10:01:43.568Z,27.87
2023-09-08T10:04:11.586Z,27.99
2023-09-08T10:06:40.230Z,28.15
2023-09-08T10:09:14.387Z,28.31
2023-09-08T10:11:49.733Z,28.45
2023-09-08T10:14:18.813Z,28.59
2023-09-08T10:16:53.573Z,28.59
2023-09-08T10:19:22.811Z,28.80
2023-09-08T10:21:52.128Z,28.78
2023-09-08T10:24:39.895Z,28.88
2023-09-08T10:27:11.150Z,28.99
2023-09-08T10:29:38.720Z,29.02
2023-09-08T10:32:07.869Z,29.32
2023-09-08T10:34:36.513Z,29.55
2023-09-08T10:37:04.367Z,29.71
2023-09-08T10:39:41.025Z,29.71
2023-09-08T10:42:20.276Z,29.87
2023-09-08T10:44:53.142Z,29.91
2023-09-08T10:47:23.331Z,30.07
2023-09-08T10:49:55.582Z,30.34
2023-09-08T10:52:25.814Z,30.28
2023-09-08T10:54:54.290Z,30.43
2023-09-08T10:57:25.586Z,30.47
2023-09-08T10:59:55.154Z,30.22
2023-09-08T11:02:35.975Z,30.23
2023-09-08T11:05:05.897Z,30.06
2023-09-08T11:07:36.085Z,30.24
2023-09-08T11:10:02.946Z,30.49
2023-09-08T11:12:29.910Z,30.73
2023-09-08T11:14:56.649Z,30.70
2023-09-08T11:17:27.221Z,30.69
2023-09-08T11:19:53.942Z,31.12
2023-09-08T11:22:24.974Z,31.32
2023-09-08T11:24:53.625Z,31.53
2023-09-08T11:27:22.240Z,31.44
2023-09-08T11:29:48.940Z,31.20
2023-09-08T11:32:15.641Z,31.49
2023-09-08T11:34:42.977Z,31.50
2023-09-08T11:37:14.219Z,31.79
2023-09-08T11:39:41.877Z,31.88
2023-09-08T11:42:09.963Z,31.99
2023-09-08T11:44:37.388Z,32.14
2023-09-08T11:47:05.835Z,32.14
2023-09-08T11:49:39.696Z,31.65
2023-09-08T11:52:07.156Z,31.49
2023-09-08T11:54:35.798Z,31.46
2023-09-08T11:57:05.338Z,31.64
2023-09-08T11:59:34.028Z,31.93
2023-09-08T12:02:00.781Z,32.05
2023-09-08T12:04:28.386Z,32.48
2023-09-08T12:06:57.071Z,32.38
2023-09-08T12:09:24.922Z,32.22
2023-09-08T12:11:52.170Z,32.45
2023-09-08T12:14:19.075Z,32.34
2023-09-08T12:16:45.746Z,32.61
2023-09-08T12:19:38.516Z,32.50
2023-09-08T12:22:08.467Z,32.67
2023-09-08T12:24:54.048Z,33.09
2023-09-08T12:27:21.079Z,33.13
2023-09-08T12:30:01.936Z,32.97
2023-09-08T12:32:31.343Z,33.30
2023-09-08T12:34:59.414Z,33.29
2023-09-08T12:37:30.429Z,33.14
2023-09-08T12:39:57.827Z,32.96
2023-09-08T12:42:30.260Z,32.96
2023-09-08T12:44:57.667Z,33.29
2023-09-08T12:47:24.214Z,33.52
2023-09-08T12:49:50.896Z,33.13
2023-09-08T12:52:17.537Z,33.41
2023-09-08T12:54:56.552Z,33.39
2023-09-08T12:57:25.418Z,33.19
2023-09-08T12:59:52.923Z,33.36
2023-09-08T13:02:19.539Z,33.34
2023-09-08T13:04:49.818Z,33.27
2023-09-08T13:07:17.814Z,33.52
2023-09-08T13:10:00.837Z,33.50
2023-09-08T13:12:38.364Z,33.86
2023-09-08T13:15:08.691Z,33.66
2023-09-08T13:17:35.354Z,33.33
2023-09-08T13:20:03.342Z,33.37
2023-09-08T13:22:30.133Z,33.52
2023-09-08T13:24:56.773Z,33.60
2023-09-08T13:27:23.396Z,33.77
2023-09-08T13:29:50.037Z,33.67
2023-09-08T13:32:17.014Z,33.22
2023-09-08T13:34:44.769Z,33.41
2023-09-08T13:37:11.548Z,33.51
2023-09-08T13:39:38.417Z,33.84
2023-09-08T13:42:05.866Z,33.74
2023-09-08T13:44:32.566Z,33.73
2023-09-08T13:46:59.409Z,33.66
2023-09-08T13:49:27.735Z,34.15
2023-09-08T13:51:57.121Z,34.53
2023-09-08T13:54:25.254Z,34.63
2023-09-08T13:57:20.486Z,34.60
2023-09-08T14:00:03.666Z,34.47
2023-09-08T14:02:43.360Z,34.52
2023-09-08T14:07:46.735Z,34.88
2023-09-08T14:10:27.177Z,34.74
2023-09-08T14:12:56.890Z,34.82
2023-09-08T14:15:23.578Z,34.67
2023-09-08T14:17:50.555Z,34.66
2023-09-08T14:20:17.337Z,34.91
2023-09-08T14:22:44.100Z,35.16
2023-09-08T14:25:14.893Z,35.06
2023-09-08T14:27:41.505Z,34.87
2023-09-08T14:30:08.523Z,34.94
2023-09-08T14:32:35.105Z,34.85
2023-09-08T14:35:02.655Z,34.60
2023-09-08T14:37:29.635Z,34.55
2023-09-08T14:39:56.241Z,34.64
2023-09-08T14:42:22.831Z,34.50
2023-09-08T14:44:52.527Z,34.46
2023-09-08T14:47:34.808Z,34.59
2023-09-08T14:50:01.839Z,34.24
2023-09-08T14:52:28.335Z,34.39
2023-09-08T14:54:54.945Z,34.19
2023-09-08T14:57:21.555Z,34.08
2023-09-08T14:59:48.180Z,34.13
2023-09-08T15:02:14.996Z,34.19
2023-09-08T15:04:41.857Z,34.28
2023-09-08T15:07:09.877Z,34.37
2023-09-08T15:09:36.943Z,34.23
2023-09-08T15:12:03.767Z,34.11
2023-09-08T15:14:30.350Z,33.91
2023-09-08T15:16:57.001Z,33.93
2023-09-08T15:19:23.581Z,34.07
2023-09-08T15:21:50.143Z,33.96
2023-09-08T15:24:18.768Z,33.62
2023-09-08T15:26:46.554Z,33.64
2023-09-08T15:29:16.794Z,33.48
2023-09-08T15:31:44.122Z,33.35
2023-09-08T15:34:12.661Z,33.51
2023-09-08T15:36:39.202Z,33.52
2023-09-08T15:39:24.579Z,33.55
2023-09-08T15:42:15.338Z,33.44
2023-09-08T15:44:50.921Z,33.38
2023-09-08T15:47:20.181Z,32.96
2023-09-08T15:49:53.543Z,33.08
2023-09-08T15:52:21.503Z,33.39
2023-09-08T15:54:48.170Z,33.53
2023-09-08T15:57:15.899Z,33.47
2023-09-08T15:59:42.672Z,33.25
2023-09-08T16:02:09.387Z,33.15
2023-09-08T16:04:36.215Z,32.94
2023-09-08T16:07:05.811Z,32.82
2023-09-08T16:09:32.409Z,32.60
2023-09-08T16:11:59.092Z,32.49
2023-09-08T16:14:25.695Z,32.46
2023-09-08T16:16:52.840Z,32.48
2023-09-08T16:19:20.110Z,32.49
2023-09-08T16:21:46.695Z,32.59
2023-09-08T16:24:13.334Z,32.94
2023-09-08T16:26:40.003Z,33.07
2023-09-08T16:29:06.730Z,33.23
2023-09-08T16:31:33.477Z,32.93
2023-09-08T16:34:00.087Z,32.38
2023-09-08T16:36:26.723Z,32.02
2023-09-08T16:38:53.291Z,31.81
2023-09-08T16:41:19.840Z,31.75
2023-09-08T16:43:46.706Z,31.67
2023-09-08T16:46:15.175Z,31.62
2023-09-08T16:48:42.062Z,31.55
2023-09-08T16:51:09.093Z,31.58
2023-09-08T16:53:35.905Z,30.90
2023-09-08T16:56:09.501Z,31.07
2023-09-08T16:58:37.138Z,31.19
2023-09-08T17:01:06.665Z,31.06
2023-09-08T17:03:33.527Z,31.06
2023-09-08T17:06:00.295Z,31.02
2023-09-08T17:08:51.749Z,30.66
2023-09-08T17:11:19.413Z,30.70
2023-09-08T17:13:45.979Z,30.79
2023-09-08T17:16:13.324Z,30.67
2023-09-08T17:18:40.008Z,30.50
2023-09-08T17:21:15.180Z,30.47
2023-09-08T17:23:42.151Z,30.37
2023-09-08T17:26:09.210Z,30.30
2023-09-08T17:28:36.117Z,30.13
2023-09-08T17:31:04.890Z,30.09
2023-09-08T17:33:31.473Z,30.04
2023-09-08T17:35:58.175Z,29.94
2023-09-08T17:38:30.127Z,29.88
2023-09-08T17:40:58.089Z,29.79
2023-09-08T17:43:25.647Z,29.60
2023-09-08T17:45:52.411Z,29.54
2023-09-08T17:48:19.224Z,29.39
2023-09-08T17:50:45.797Z,29.31
2023-09-08T17:53:12.380Z,29.15
2023-09-08T17:55:38.952Z,29.01
2023-09-08T17:58:05.543Z,28.99
2023-09-08T18:00:32.165Z,28.78
2023-09-08T18:02:58.838Z,28.71
2023-09-08T18:05:26.450Z,28.52
2023-09-08T18:07:53.027Z,28.53
2023-09-08T18:10:19.841Z,28.36
2023-09-08T18:12:46.631Z,28.31
2023-09-08T18:15:13.271Z,28.21
2023-09-08T18:17:41.078Z,28.15
2023-09-08T18:20:08.267Z,28.02
2023-09-08T18:22:35.120Z,27.90
2023-09-08T18:25:01.917Z,27.83
2023-09-08T18:27:30.702Z,27.73
2023-09-08T18:29:57.480Z,27.60
2023-09-08T18:32:24.773Z,27.49
2023-09-08T18:34:53.668Z,27.40
2023-09-08T18:37:21.476Z,27.31
2023-09-08T18:39:48.083Z,27.25
2023-09-08T18:42:14.648Z,27.12
2023-09-08T18:44:43.486Z,27.02
2023-09-08T18:47:10.788Z,26.94
2023-09-08T18:49:37.594Z,26.77
2023-09-08T18:52:04.605Z,26.81
2023-09-08T18:54:33.235Z,26.69
2023-09-08T18:57:00.043Z,26.63
2023-09-08T18:59:26.985Z,26.51
2023-09-08T19:01:55.209Z,26.45
2023-09-08T19:04:22.320Z,26.45
2023-09-08T19:06:49.182Z,26.37
2023-09-08T19:09:15.968Z,26.23
2023-09-08T19:11:42.642Z,26.10
2023-09-08T19:14:09.401Z,26.05
2023-09-08T19:16:36.273Z,25.86
2023-09-08T19:19:02.858Z,25.86
2023-09-08T19:21:29.530Z,25.77
2023-09-08T19:23:56.044Z,25.68
2023-09-08T19:26:22.641Z,25.64
2023-09-08T19:28:49.185Z,25.59
2023-09-08T19:31:15.807Z,25.58
2023-09-08T19:33:42.557Z,25.57
2023-09-08T19:36:09.149Z,25.51
2023-09-08T19:38:35.764Z,25.53
2023-09-08T19:41:05.982Z,25.46
2023-09-08T19:43:32.735Z,25.28
2023-09-08T19:46:04.677Z,25.29
2023-09-08T19:48:35.320Z,25.26
2023-09-08T19:51:04.241Z,25.19
2023-09-08T19:53:31.396Z,25.10
2023-09-08T19:55:58.778Z,24.97
2023-09-08T19:58:29.339Z,24.99
2023-09-08T20:01:04.790Z,24.86
2023-09-08T20:03:31.725Z,24.85
2023-09-08T20:05:58.576Z,24.92
2023-09-08T20:08:25.208Z,24.86
2023-09-08T20:10:53.438Z,24.74
2023-09-08T20:13:21.148Z,24.64
2023-09-08T20:15:57.977Z,24.70
2023-09-08T20:18:24.741Z,24.68
2023-09-08T20:21:05.676Z,24.59
2023-09-08T20:23:33.591Z,24.51
2023-09-08T20:26:00.630Z,24.48
2023-09-08T20:28:27.293Z,24.45
2023-09-08T20:31:09.545Z,24.40
2023-09-08T20:33:41.022Z,24.31
2023-09-08T20:36:07.622Z,24.32
2023-09-08T20:38:34.476Z,24.29
2023-09-08T20:41:01.347Z,24.30
2023-09-08T20:43:28.006Z,24.24
2023-09-08T20:45:55.180Z,24.16
2023-09-08T20:48:22.872Z,24.26
2023-09-08T20:50:59.333Z,24.28
2023-09-08T20:53:25.888Z,24.17
2023-09-08T20:55:52.470Z,24.05
2023-09-08T20:58:19.095Z,23.97
2023-09-08T21:00:45.756Z,23.94
2023-09-08T21:03:12.538Z,23.97
2023-09-08T21:05:39.376Z,23.80
2023-09-08T21:08:06.699Z,23.76
2023-09-08T21:10:33.462Z,23.74
2023-09-08T21:13:00.022Z,23.82
2023-09-08T21:15:26.584Z,23.80
2023-09-08T21:17:53.278Z,23.85
2023-09-08T21:20:20.403Z,23.86
2023-09-08T21:22:47.038Z,23.80
2023-09-08T21:25:13.932Z,23.66
2023-09-08T21:27:40.615Z,23.55
2023-09-08T21:30:07.788Z,23.35
2023-09-08T21:32:34.549Z,23.25
2023-09-08T21:35:01.319Z,23.16
2023-09-08T21:37:28.285Z,23.09
2023-09-08T21:39:54.895Z,23.02
2023-09-08T21:42:21.483Z,23.03
2023-09-08T21:44:48.046Z,23.06
2023-09-08T21:47:15.800Z,23.01
2023-09-08T21:49:42.470Z,23.04
2023-09-08T21:52:09.108Z,23.00
2023-09-08T21:54:35.716Z,22.94
2023-09-08T21:57:02.296Z,22.85
2023-09-08T21:59:31.392Z,22.68
2023-09-08T22:01:58.515Z,22.59
2023-09-08T22:04:26.373Z,22.55
2023-09-08T22:06:53.862Z,22.54
2023-09-08T22:09:20.737Z,22.39
2023-09-08T22:11:49.873Z,22.38
2023-09-08T22:14:16.653Z,22.27
2023-09-08T22:16:43.340Z,22.33
2023-09-08T22:19:11.517Z,22.34
2023-09-08T22:21:39.358Z,22.32
2023-09-08T22:24:06.380Z,22.25
2023-09-08T22:26:33.122Z,22.23
2023-09-08T22:28:59.679Z,22.19
2023-09-08T22:31:26.380Z,22.15
2023-09-08T22:33:53.184Z,21.99
2023-09-08T22:36:21.061Z,21.95
2023-09-08T22:38:48.447Z,21.88
2023-09-08T22:41:15.098Z,21.85
2023-09-08T22:43:41.736Z,21.83
2023-09-08T22:46:08.819Z,21.87
2023-09-08T22:48:36.241Z,21.86
2023-09-08T22:51:04.904Z,21.85
2023-09-08T22:53:31.768Z,21.86
2023-09-08T22:55:58.517Z,21.73
2023-09-08T22:58:26.364Z,21.68
2023-09-08T23:00:53.131Z,21.66
2023-09-08T23:03:20.151Z,21.76
2023-09-08T23:05:46.760Z,21.71
2023-09-08T23:08:13.361Z,21.68
2023-09-08T23:10:39.956Z,21.55
2023-09-08T23:13:06.523Z,21.44
2023-09-08T23:15:34.290Z,21.26
2023-09-08T23:18:00.996Z,21.22
2023-09-08T23:20:27.771Z,21.09
2023-09-08T23:22:54.429Z,21.03
2023-09-08T23:25:20.964Z,21.06
2023-09-08T23:27:47.555Z,20.95
2023-09-08T23:30:16.247Z,20.95
2023-09-08T23:32:45.597Z,20.90
2023-09-08T23:35:13.299Z,20.87
2023-09-08T23:37:40.052Z,20.68
2023-09-08T23:40:13.565Z,20.69
2023-09-08T23:42:40.615Z,20.67
2023-09-08T23:45:07.570Z,20.61
2023-09-08T23:47:34.495Z,20.50
2023-09-08T23:50:01.309Z,20.56
2023-09-08T23:52:28.582Z,20.52
2023-09-08T23:54:55.320Z,20.51
2023-09-08T23:57:21.989Z,20.39
2023-09-08T23:59:48.726Z,20.33
